sensor_id;sensor_type;location;lat;lon;timestamp;P1;durP1;ratioP1;P2;durP2;ratioP2
36659;SDS011;22654;51.054;3.654;2022-12-29T00:02:25;2.38;;;1.20;;
36659;SDS011;22654;51.054;3.654;2022-12-29T00:04:51;1.35;;;1.00;;
36659;SDS011;22654;51.054;3.654;2022-12-29T00:07:17;1.20;;;1.20;;
36659;SDS011;22654;51.054;3.654;2022-12-29T00:09:43;1.65;;;1.10;;
36659;SDS011;22654;51.054;3.654;2022-12-29T00:12:09;1.45;;;1.35;;
36659;SDS011;22654;51.054;3.654;2022-12-29T00:14:35;2.33;;;1.15;;
36659;SDS011;22654;51.054;3.654;2022-12-29T00:17:20;2.33;;;0.95;;
36659;SDS011;22654;51.054;3.654;2022-12-29T00:19:46;1.23;;;1.10;;
36659;SDS011;22654;51.054;3.654;2022-12-29T00:22:30;2.58;;;1.05;;
36659;SDS011;22654;51.054;3.654;2022-12-29T00:25:14;1.10;;;1.00;;
36659;SDS011;22654;51.054;3.654;2022-12-29T00:27:59;1.48;;;0.98;;
36659;SDS011;22654;51.054;3.654;2022-12-29T00:30:43;1.25;;;1.15;;
36659;SDS011;22654;51.054;3.654;2022-12-29T00:33:28;2.20;;;1.13;;
36659;SDS011;22654;51.054;3.654;2022-12-29T00:41:54;3.28;;;1.13;;
36659;SDS011;22654;51.054;3.654;2022-12-29T00:44:39;1.98;;;1.10;;
36659;SDS011;22654;51.054;3.654;2022-12-29T00:47:05;5.10;;;1.45;;
36659;SDS011;22654;51.054;3.654;2022-12-29T00:49:31;2.03;;;1.00;;
36659;SDS011;22654;51.054;3.654;2022-12-29T00:54:32;3.85;;;1.10;;
36659;SDS011;22654;51.054;3.654;2022-12-29T00:56:59;4.38;;;1.13;;
36659;SDS011;22654;51.054;3.654;2022-12-29T00:59:25;2.70;;;1.23;;
36659;SDS011;22654;51.054;3.654;2022-12-29T01:01:51;4.85;;;1.20;;
36659;SDS011;22654;51.054;3.654;2022-12-29T01:04:19;3.55;;;1.00;;
36659;SDS011;22654;51.054;3.654;2022-12-29T01:06:46;2.53;;;1.02;;
36659;SDS011;22654;51.054;3.654;2022-12-29T01:09:14;2.75;;;1.02;;
36659;SDS011;22654;51.054;3.654;2022-12-29T01:11:59;3.08;;;1.35;;
36659;SDS011;22654;51.054;3.654;2022-12-29T01:14:25;2.13;;;1.05;;
36659;SDS011;22654;51.054;3.654;2022-12-29T01:16:51;4.30;;;1.65;;
36659;SDS011;22654;51.054;3.654;2022-12-29T01:19:17;2.25;;;1.20;;
36659;SDS011;22654;51.054;3.654;2022-12-29T01:21:44;5.72;;;1.08;;
36659;SDS011;22654;51.054;3.654;2022-12-29T01:24:11;3.88;;;1.05;;
36659;SDS011;22654;51.054;3.654;2022-12-29T01:26:38;3.85;;;1.10;;
36659;SDS011;22654;51.054;3.654;2022-12-29T01:29:03;2.88;;;1.15;;
36659;SDS011;22654;51.054;3.654;2022-12-29T01:31:29;6.60;;;1.23;;
36659;SDS011;22654;51.054;3.654;2022-12-29T01:33:55;6.28;;;1.67;;
36659;SDS011;22654;51.054;3.654;2022-12-29T01:36:21;4.18;;;1.15;;
36659;SDS011;22654;51.054;3.654;2022-12-29T01:38:47;5.22;;;1.25;;
36659;SDS011;22654;51.054;3.654;2022-12-29T01:41:13;6.97;;;1.42;;
36659;SDS011;22654;51.054;3.654;2022-12-29T01:43:48;3.55;;;1.13;;
36659;SDS011;22654;51.054;3.654;2022-12-29T01:54:12;12.43;;;2.22;;
36659;SDS011;22654;51.054;3.654;2022-12-29T01:56:45;3.45;;;1.13;;
36659;SDS011;22654;51.054;3.654;2022-12-29T01:59:15;3.88;;;1.23;;
36659;SDS011;22654;51.054;3.654;2022-12-29T02:01:45;5.18;;;2.00;;
36659;SDS011;22654;51.054;3.654;2022-12-29T02:04:11;7.32;;;2.10;;
36659;SDS011;22654;51.054;3.654;2022-12-29T02:06:41;5.55;;;1.23;;
36659;SDS011;22654;51.054;3.654;2022-12-29T02:09:29;2.65;;;1.30;;
36659;SDS011;22654;51.054;3.654;2022-12-29T02:11:56;5.18;;;1.48;;
36659;SDS011;22654;51.054;3.654;2022-12-29T02:14:23;7.28;;;1.42;;
36659;SDS011;22654;51.054;3.654;2022-12-29T02:17:08;3.80;;;1.20;;
36659;SDS011;22654;51.054;3.654;2022-12-29T02:20:11;3.50;;;1.00;;
36659;SDS011;22654;51.054;3.654;2022-12-29T02:28:52;4.05;;;1.42;;
36659;SDS011;22654;51.054;3.654;2022-12-29T02:31:42;4.88;;;2.00;;
36659;SDS011;22654;51.054;3.654;2022-12-29T02:34:20;4.07;;;1.15;;
36659;SDS011;22654;51.054;3.654;2022-12-29T02:45:22;4.40;;;1.40;;
36659;SDS011;22654;51.054;3.654;2022-12-29T02:48:13;2.58;;;1.13;;
36659;SDS011;22654;51.054;3.654;2022-12-29T02:53:28;4.25;;;1.35;;
36659;SDS011;22654;51.054;3.654;2022-12-29T02:56:17;3.53;;;1.30;;
36659;SDS011;22654;51.054;3.654;2022-12-29T02:58:43;8.55;;;1.42;;
36659;SDS011;22654;51.054;3.654;2022-12-29T03:06:43;4.35;;;1.52;;
36659;SDS011;22654;51.054;3.654;2022-12-29T03:12:26;5.18;;;1.38;;
36659;SDS011;22654;51.054;3.654;2022-12-29T03:15:10;8.70;;;1.67;;
36659;SDS011;22654;51.054;3.654;2022-12-29T03:18:05;3.28;;;1.45;;
36659;SDS011;22654;51.054;3.654;2022-12-29T03:20:39;12.88;;;2.78;;
36659;SDS011;22654;51.054;3.654;2022-12-29T03:23:12;5.40;;;1.73;;
36659;SDS011;22654;51.054;3.654;2022-12-29T03:25:43;5.97;;;1.55;;
36659;SDS011;22654;51.054;3.654;2022-12-29T03:28:17;6.15;;;1.60;;
36659;SDS011;22654;51.054;3.654;2022-12-29T03:30:57;6.70;;;2.00;;
36659;SDS011;22654;51.054;3.654;2022-12-29T03:33:27;8.02;;;1.60;;
36659;SDS011;22654;51.054;3.654;2022-12-29T03:35:59;6.53;;;1.48;;
36659;SDS011;22654;51.054;3.654;2022-12-29T03:38:38;6.35;;;1.50;;
36659;SDS011;22654;51.054;3.654;2022-12-29T03:41:11;5.60;;;1.67;;
36659;SDS011;22654;51.054;3.654;2022-12-29T03:43:45;5.95;;;1.60;;
36659;SDS011;22654;51.054;3.654;2022-12-29T03:46:11;4.05;;;1.42;;
36659;SDS011;22654;51.054;3.654;2022-12-29T03:48:40;7.07;;;1.92;;
36659;SDS011;22654;51.054;3.654;2022-12-29T03:51:08;10.25;;;1.88;;
36659;SDS011;22654;51.054;3.654;2022-12-29T03:53:35;9.73;;;1.90;;
36659;SDS011;22654;51.054;3.654;2022-12-29T03:56:01;10.80;;;1.98;;
36659;SDS011;22654;51.054;3.654;2022-12-29T03:58:28;11.32;;;2.13;;
36659;SDS011;22654;51.054;3.654;2022-12-29T04:01:03;9.45;;;2.30;;
36659;SDS011;22654;51.054;3.654;2022-12-29T04:03:31;4.72;;;1.50;;
36659;SDS011;22654;51.054;3.654;2022-12-29T04:05:57;7.15;;;2.08;;
36659;SDS011;22654;51.054;3.654;2022-12-29T04:08:24;6.78;;;2.03;;
36659;SDS011;22654;51.054;3.654;2022-12-29T04:10:50;9.70;;;2.40;;
36659;SDS011;22654;51.054;3.654;2022-12-29T04:13:18;11.52;;;2.65;;
36659;SDS011;22654;51.054;3.654;2022-12-29T04:15:44;9.55;;;1.95;;
36659;SDS011;22654;51.054;3.654;2022-12-29T04:18:11;13.32;;;2.33;;
36659;SDS011;22654;51.054;3.654;2022-12-29T04:20:38;8.95;;;1.75;;
36659;SDS011;22654;51.054;3.654;2022-12-29T04:23:22;10.48;;;2.22;;
36659;SDS011;22654;51.054;3.654;2022-12-29T04:25:49;7.47;;;1.70;;
36659;SDS011;22654;51.054;3.654;2022-12-29T04:28:15;7.35;;;1.75;;
36659;SDS011;22654;51.054;3.654;2022-12-29T04:30:49;6.18;;;1.45;;
36659;SDS011;22654;51.054;3.654;2022-12-29T04:33:21;7.47;;;2.28;;
36659;SDS011;22654;51.054;3.654;2022-12-29T04:35:47;8.95;;;1.85;;
36659;SDS011;22654;51.054;3.654;2022-12-29T04:38:13;7.32;;;1.95;;
36659;SDS011;22654;51.054;3.654;2022-12-29T04:40:41;6.70;;;1.80;;
36659;SDS011;22654;51.054;3.654;2022-12-29T04:43:09;7.72;;;2.10;;
36659;SDS011;22654;51.054;3.654;2022-12-29T04:45:51;8.38;;;2.85;;
36659;SDS011;22654;51.054;3.654;2022-12-29T04:48:27;4.15;;;1.60;;
36659;SDS011;22654;51.054;3.654;2022-12-29T04:51:22;6.20;;;1.63;;
36659;SDS011;22654;51.054;3.654;2022-12-29T04:53:49;9.00;;;2.03;;
36659;SDS011;22654;51.054;3.654;2022-12-29T04:56:15;6.75;;;1.45;;
36659;SDS011;22654;51.054;3.654;2022-12-29T04:58:41;9.93;;;1.77;;
36659;SDS011;22654;51.054;3.654;2022-12-29T05:01:07;5.00;;;1.40;;
36659;SDS011;22654;51.054;3.654;2022-12-29T05:03:33;9.35;;;1.75;;
36659;SDS011;22654;51.054;3.654;2022-12-29T05:05:59;5.10;;;1.42;;
36659;SDS011;22654;51.054;3.654;2022-12-29T05:08:26;7.70;;;2.05;;
36659;SDS011;22654;51.054;3.654;2022-12-29T05:10:52;7.60;;;1.92;;
36659;SDS011;22654;51.054;3.654;2022-12-29T05:13:19;4.35;;;1.30;;
36659;SDS011;22654;51.054;3.654;2022-12-29T05:15:51;6.00;;;1.25;;
36659;SDS011;22654;51.054;3.654;2022-12-29T05:20:52;5.57;;;1.48;;
36659;SDS011;22654;51.054;3.654;2022-12-29T05:23:20;8.43;;;1.70;;
36659;SDS011;22654;51.054;3.654;2022-12-29T05:25:52;8.25;;;1.65;;
36659;SDS011;22654;51.054;3.654;2022-12-29T05:28:32;7.80;;;1.60;;
36659;SDS011;22654;51.054;3.654;2022-12-29T05:31:14;8.13;;;2.22;;
36659;SDS011;22654;51.054;3.654;2022-12-29T05:33:40;4.63;;;1.38;;
36659;SDS011;22654;51.054;3.654;2022-12-29T05:36:06;10.25;;;3.65;;
36659;SDS011;22654;51.054;3.654;2022-12-29T05:38:35;6.97;;;1.52;;
36659;SDS011;22654;51.054;3.654;2022-12-29T05:41:01;8.82;;;2.25;;
36659;SDS011;22654;51.054;3.654;2022-12-29T05:43:45;5.10;;;1.55;;
36659;SDS011;22654;51.054;3.654;2022-12-29T05:46:28;6.60;;;1.80;;
36659;SDS011;22654;51.054;3.654;2022-12-29T05:49:17;7.53;;;2.10;;
36659;SDS011;22654;51.054;3.654;2022-12-29T05:51:54;11.52;;;2.05;;
36659;SDS011;22654;51.054;3.654;2022-12-29T05:54:20;12.73;;;1.88;;
36659;SDS011;22654;51.054;3.654;2022-12-29T05:56:47;6.95;;;2.03;;
36659;SDS011;22654;51.054;3.654;2022-12-29T05:59:12;6.85;;;2.22;;
36659;SDS011;22654;51.054;3.654;2022-12-29T06:01:39;5.55;;;2.00;;
36659;SDS011;22654;51.054;3.654;2022-12-29T06:04:05;11.93;;;2.28;;
36659;SDS011;22654;51.054;3.654;2022-12-29T06:06:31;6.70;;;1.92;;
36659;SDS011;22654;51.054;3.654;2022-12-29T06:08:57;9.50;;;2.65;;
36659;SDS011;22654;51.054;3.654;2022-12-29T06:11:23;9.98;;;2.72;;
36659;SDS011;22654;51.054;3.654;2022-12-29T06:13:53;13.40;;;3.55;;
36659;SDS011;22654;51.054;3.654;2022-12-29T06:16:19;10.05;;;2.50;;
36659;SDS011;22654;51.054;3.654;2022-12-29T06:18:46;10.27;;;2.53;;
36659;SDS011;22654;51.054;3.654;2022-12-29T06:21:12;12.55;;;2.70;;
36659;SDS011;22654;51.054;3.654;2022-12-29T06:23:38;10.15;;;2.13;;
36659;SDS011;22654;51.054;3.654;2022-12-29T06:26:05;8.75;;;2.53;;
36659;SDS011;22654;51.054;3.654;2022-12-29T06:28:31;14.30;;;3.30;;
36659;SDS011;22654;51.054;3.654;2022-12-29T06:30:57;16.23;;;2.78;;
36659;SDS011;22654;51.054;3.654;2022-12-29T06:33:23;11.73;;;3.15;;
36659;SDS011;22654;51.054;3.654;2022-12-29T06:35:49;13.07;;;2.75;;
36659;SDS011;22654;51.054;3.654;2022-12-29T06:38:15;11.63;;;2.50;;
36659;SDS011;22654;51.054;3.654;2022-12-29T06:40:41;8.32;;;2.65;;
36659;SDS011;22654;51.054;3.654;2022-12-29T06:43:19;8.70;;;2.60;;
36659;SDS011;22654;51.054;3.654;2022-12-29T06:45:50;11.90;;;2.38;;
36659;SDS011;22654;51.054;3.654;2022-12-29T06:48:19;11.48;;;2.67;;
36659;SDS011;22654;51.054;3.654;2022-12-29T06:50:45;10.60;;;2.45;;
36659;SDS011;22654;51.054;3.654;2022-12-29T06:53:14;14.05;;;2.88;;
36659;SDS011;22654;51.054;3.654;2022-12-29T06:55:45;11.43;;;2.75;;
36659;SDS011;22654;51.054;3.654;2022-12-29T06:58:12;10.38;;;3.05;;
36659;SDS011;22654;51.054;3.654;2022-12-29T07:00:38;10.70;;;2.53;;
36659;SDS011;22654;51.054;3.654;2022-12-29T07:03:04;10.52;;;3.25;;
36659;SDS011;22654;51.054;3.654;2022-12-29T07:05:30;10.50;;;2.10;;
36659;SDS011;22654;51.054;3.654;2022-12-29T07:07:57;12.55;;;2.55;;
36659;SDS011;22654;51.054;3.654;2022-12-29T07:10:24;14.43;;;3.00;;
36659;SDS011;22654;51.054;3.654;2022-12-29T07:12:50;13.35;;;2.72;;
36659;SDS011;22654;51.054;3.654;2022-12-29T07:15:16;13.25;;;2.67;;
36659;SDS011;22654;51.054;3.654;2022-12-29T07:17:42;9.85;;;2.30;;
36659;SDS011;22654;51.054;3.654;2022-12-29T07:20:08;10.93;;;2.80;;
36659;SDS011;22654;51.054;3.654;2022-12-29T07:22:37;10.70;;;3.05;;
36659;SDS011;22654;51.054;3.654;2022-12-29T07:25:03;8.07;;;2.65;;
36659;SDS011;22654;51.054;3.654;2022-12-29T07:27:30;11.18;;;2.40;;
36659;SDS011;22654;51.054;3.654;2022-12-29T07:29:55;14.27;;;3.70;;
36659;SDS011;22654;51.054;3.654;2022-12-29T07:32:21;8.88;;;2.42;;
36659;SDS011;22654;51.054;3.654;2022-12-29T07:34:47;11.43;;;3.00;;
36659;SDS011;22654;51.054;3.654;2022-12-29T07:37:16;12.18;;;3.00;;
36659;SDS011;22654;51.054;3.654;2022-12-29T07:39:43;10.05;;;2.72;;
36659;SDS011;22654;51.054;3.654;2022-12-29T07:42:09;14.30;;;2.97;;
36659;SDS011;22654;51.054;3.654;2022-12-29T07:44:41;13.38;;;4.20;;
36659;SDS011;22654;51.054;3.654;2022-12-29T07:47:29;13.40;;;2.63;;
36659;SDS011;22654;51.054;3.654;2022-12-29T07:49:55;10.93;;;2.30;;
36659;SDS011;22654;51.054;3.654;2022-12-29T07:52:24;10.82;;;2.60;;
36659;SDS011;22654;51.054;3.654;2022-12-29T07:54:50;11.15;;;2.65;;
36659;SDS011;22654;51.054;3.654;2022-12-29T07:57:16;10.05;;;2.40;;
36659;SDS011;22654;51.054;3.654;2022-12-29T07:59:41;7.28;;;2.42;;
36659;SDS011;22654;51.054;3.654;2022-12-29T08:02:11;11.77;;;2.50;;
36659;SDS011;22654;51.054;3.654;2022-12-29T08:04:37;10.60;;;2.67;;
36659;SDS011;22654;51.054;3.654;2022-12-29T08:07:03;14.73;;;2.83;;
36659;SDS011;22654;51.054;3.654;2022-12-29T08:09:29;9.27;;;2.60;;
36659;SDS011;22654;51.054;3.654;2022-12-29T08:11:54;14.20;;;2.97;;
36659;SDS011;22654;51.054;3.654;2022-12-29T08:14:20;8.10;;;2.63;;
36659;SDS011;22654;51.054;3.654;2022-12-29T08:16:46;8.90;;;3.58;;
36659;SDS011;22654;51.054;3.654;2022-12-29T08:19:13;11.63;;;3.35;;
36659;SDS011;22654;51.054;3.654;2022-12-29T08:21:39;11.30;;;2.78;;
36659;SDS011;22654;51.054;3.654;2022-12-29T08:24:05;12.65;;;2.67;;
36659;SDS011;22654;51.054;3.654;2022-12-29T08:26:31;13.15;;;2.92;;
36659;SDS011;22654;51.054;3.654;2022-12-29T08:28:58;13.15;;;3.28;;
36659;SDS011;22654;51.054;3.654;2022-12-29T08:31:23;15.93;;;3.20;;
36659;SDS011;22654;51.054;3.654;2022-12-29T08:33:49;10.82;;;3.10;;
36659;SDS011;22654;51.054;3.654;2022-12-29T08:36:16;16.50;;;3.55;;
36659;SDS011;22654;51.054;3.654;2022-12-29T08:38:42;8.88;;;2.33;;
36659;SDS011;22654;51.054;3.654;2022-12-29T08:41:08;11.50;;;3.22;;
36659;SDS011;22654;51.054;3.654;2022-12-29T08:43:34;9.98;;;2.88;;
36659;SDS011;22654;51.054;3.654;2022-12-29T08:45:59;13.50;;;4.25;;
36659;SDS011;22654;51.054;3.654;2022-12-29T08:48:26;9.93;;;2.78;;
36659;SDS011;22654;51.054;3.654;2022-12-29T08:50:52;13.07;;;3.45;;
36659;SDS011;22654;51.054;3.654;2022-12-29T08:53:18;12.40;;;2.88;;
36659;SDS011;22654;51.054;3.654;2022-12-29T08:55:45;12.95;;;3.53;;
36659;SDS011;22654;51.054;3.654;2022-12-29T08:58:13;11.23;;;2.60;;
36659;SDS011;22654;51.054;3.654;2022-12-29T09:00:41;12.60;;;2.83;;
36659;SDS011;22654;51.054;3.654;2022-12-29T09:03:08;15.93;;;3.83;;
36659;SDS011;22654;51.054;3.654;2022-12-29T09:05:34;12.98;;;3.15;;
36659;SDS011;22654;51.054;3.654;2022-12-29T09:08:00;14.90;;;3.92;;
36659;SDS011;22654;51.054;3.654;2022-12-29T09:10:26;19.48;;;3.10;;
36659;SDS011;22654;51.054;3.654;2022-12-29T09:12:52;11.32;;;3.55;;
36659;SDS011;22654;51.054;3.654;2022-12-29T09:15:17;13.73;;;3.38;;
36659;SDS011;22654;51.054;3.654;2022-12-29T09:17:43;13.13;;;3.20;;
36659;SDS011;22654;51.054;3.654;2022-12-29T09:20:11;14.70;;;3.75;;
36659;SDS011;22654;51.054;3.654;2022-12-29T09:22:38;13.18;;;3.33;;
36659;SDS011;22654;51.054;3.654;2022-12-29T09:25:05;14.50;;;3.33;;
36659;SDS011;22654;51.054;3.654;2022-12-29T09:27:32;9.65;;;2.50;;
36659;SDS011;22654;51.054;3.654;2022-12-29T09:29:58;13.65;;;3.25;;
36659;SDS011;22654;51.054;3.654;2022-12-29T09:32:27;12.25;;;3.85;;
36659;SDS011;22654;51.054;3.654;2022-12-29T09:34:53;10.88;;;3.45;;
36659;SDS011;22654;51.054;3.654;2022-12-29T09:37:19;16.08;;;3.70;;
36659;SDS011;22654;51.054;3.654;2022-12-29T09:39:46;18.00;;;3.65;;
36659;SDS011;22654;51.054;3.654;2022-12-29T09:42:14;15.20;;;3.17;;
36659;SDS011;22654;51.054;3.654;2022-12-29T09:44:55;16.98;;;4.70;;
36659;SDS011;22654;51.054;3.654;2022-12-29T09:47:22;16.10;;;3.17;;
36659;SDS011;22654;51.054;3.654;2022-12-29T09:49:51;15.90;;;3.42;;
36659;SDS011;22654;51.054;3.654;2022-12-29T09:52:29;20.35;;;4.10;;
36659;SDS011;22654;51.054;3.654;2022-12-29T09:55:19;16.08;;;3.58;;
36659;SDS011;22654;51.054;3.654;2022-12-29T09:57:49;10.48;;;3.53;;
36659;SDS011;22654;51.054;3.654;2022-12-29T10:00:28;14.18;;;4.13;;
36659;SDS011;22654;51.054;3.654;2022-12-29T10:03:05;17.08;;;3.85;;
36659;SDS011;22654;51.054;3.654;2022-12-29T10:05:50;17.25;;;3.42;;
36659;SDS011;22654;51.054;3.654;2022-12-29T10:08:42;19.25;;;4.03;;
36659;SDS011;22654;51.054;3.654;2022-12-29T10:11:19;14.60;;;3.38;;
36659;SDS011;22654;51.054;3.654;2022-12-29T10:17:10;15.40;;;3.50;;
36659;SDS011;22654;51.054;3.654;2022-12-29T10:22:16;15.25;;;3.55;;
36659;SDS011;22654;51.054;3.654;2022-12-29T10:25:02;13.20;;;3.58;;
36659;SDS011;22654;51.054;3.654;2022-12-29T10:27:35;12.63;;;3.30;;
36659;SDS011;22654;51.054;3.654;2022-12-29T10:30:02;15.75;;;4.05;;
36659;SDS011;22654;51.054;3.654;2022-12-29T10:32:33;15.35;;;4.05;;
36659;SDS011;22654;51.054;3.654;2022-12-29T10:38:02;10.00;;;2.75;;
36659;SDS011;22654;51.054;3.654;2022-12-29T10:40:36;11.75;;;3.28;;
36659;SDS011;22654;51.054;3.654;2022-12-29T10:43:13;15.10;;;3.20;;
36659;SDS011;22654;51.054;3.654;2022-12-29T10:45:47;9.38;;;2.40;;
36659;SDS011;22654;51.054;3.654;2022-12-29T10:48:20;10.35;;;2.53;;
36659;SDS011;22654;51.054;3.654;2022-12-29T10:50:49;7.55;;;2.53;;
36659;SDS011;22654;51.054;3.654;2022-12-29T10:53:20;7.82;;;2.30;;
36659;SDS011;22654;51.054;3.654;2022-12-29T10:55:50;9.50;;;2.92;;
36659;SDS011;22654;51.054;3.654;2022-12-29T10:58:19;8.40;;;2.30;;
36659;SDS011;22654;51.054;3.654;2022-12-29T11:00:49;10.05;;;2.38;;
36659;SDS011;22654;51.054;3.654;2022-12-29T11:06:21;10.40;;;2.78;;
36659;SDS011;22654;51.054;3.654;2022-12-29T11:09:13;9.73;;;2.35;;
36659;SDS011;22654;51.054;3.654;2022-12-29T11:11:37;8.27;;;2.50;;
36659;SDS011;22654;51.054;3.654;2022-12-29T11:14:10;9.10;;;2.45;;
36659;SDS011;22654;51.054;3.654;2022-12-29T11:16:37;7.65;;;3.50;;
36659;SDS011;22654;51.054;3.654;2022-12-29T11:19:04;7.22;;;1.95;;
36659;SDS011;22654;51.054;3.654;2022-12-29T11:23:58;8.25;;;2.30;;
36659;SDS011;22654;51.054;3.654;2022-12-29T11:26:29;8.43;;;2.95;;
36659;SDS011;22654;51.054;3.654;2022-12-29T11:31:46;10.85;;;2.85;;
36659;SDS011;22654;51.054;3.654;2022-12-29T11:34:18;11.85;;;2.92;;
36659;SDS011;22654;51.054;3.654;2022-12-29T11:36:47;9.52;;;2.55;;
36659;SDS011;22654;51.054;3.654;2022-12-29T11:39:33;13.73;;;3.42;;
36659;SDS011;22654;51.054;3.654;2022-12-29T11:42:19;10.20;;;2.67;;
36659;SDS011;22654;51.054;3.654;2022-12-29T11:44:48;10.00;;;2.60;;
36659;SDS011;22654;51.054;3.654;2022-12-29T11:47:49;10.73;;;3.17;;
36659;SDS011;22654;51.054;3.654;2022-12-29T11:50:16;11.95;;;3.10;;
36659;SDS011;22654;51.054;3.654;2022-12-29T11:53:05;13.90;;;2.97;;
36659;SDS011;22654;51.054;3.654;2022-12-29T11:56:06;14.35;;;3.35;;
36659;SDS011;22654;51.054;3.654;2022-12-29T11:58:32;12.68;;;3.10;;
36659;SDS011;22654;51.054;3.654;2022-12-29T12:01:01;15.25;;;2.95;;
36659;SDS011;22654;51.054;3.654;2022-12-29T12:03:59;12.13;;;3.58;;
36659;SDS011;22654;51.054;3.654;2022-12-29T12:06:26;16.23;;;3.78;;
36659;SDS011;22654;51.054;3.654;2022-12-29T12:09:05;13.80;;;3.28;;
36659;SDS011;22654;51.054;3.654;2022-12-29T12:11:39;11.20;;;2.63;;
36659;SDS011;22654;51.054;3.654;2022-12-29T12:17:47;10.70;;;3.08;;
36659;SDS011;22654;51.054;3.654;2022-12-29T12:20:36;9.18;;;2.72;;
36659;SDS011;22654;51.054;3.654;2022-12-29T12:28:46;16.10;;;2.70;;
36659;SDS011;22654;51.054;3.654;2022-12-29T12:31:41;10.15;;;2.70;;
36659;SDS011;22654;51.054;3.654;2022-12-29T12:34:11;9.95;;;2.35;;
36659;SDS011;22654;51.054;3.654;2022-12-29T12:53:16;8.98;;;2.17;;
36659;SDS011;22654;51.054;3.654;2022-12-29T12:55:53;6.30;;;1.77;;
36659;SDS011;22654;51.054;3.654;2022-12-29T13:10:25;6.55;;;2.35;;
36659;SDS011;22654;51.054;3.654;2022-12-29T13:21:09;13.68;;;2.78;;
36659;SDS011;22654;51.054;3.654;2022-12-29T13:23:50;8.75;;;2.10;;
36659;SDS011;22654;51.054;3.654;2022-12-29T13:26:32;6.53;;;2.00;;
36659;SDS011;22654;51.054;3.654;2022-12-29T13:29:15;7.13;;;1.90;;
36659;SDS011;22654;51.054;3.654;2022-12-29T13:37:24;4.63;;;1.42;;
36659;SDS011;22654;51.054;3.654;2022-12-29T13:39:57;6.10;;;1.48;;
36659;SDS011;22654;51.054;3.654;2022-12-29T13:42:26;5.35;;;1.60;;
36659;SDS011;22654;51.054;3.654;2022-12-29T13:45:00;3.67;;;1.35;;
36659;SDS011;22654;51.054;3.654;2022-12-29T13:47:35;3.08;;;1.70;;
36659;SDS011;22654;51.054;3.654;2022-12-29T13:50:05;4.80;;;1.70;;
36659;SDS011;22654;51.054;3.654;2022-12-29T13:52:43;3.13;;;1.48;;
36659;SDS011;22654;51.054;3.654;2022-12-29T13:55:24;5.43;;;1.90;;
36659;SDS011;22654;51.054;3.654;2022-12-29T13:57:54;4.22;;;1.42;;
36659;SDS011;22654;51.054;3.654;2022-12-29T14:00:24;5.80;;;1.48;;
36659;SDS011;22654;51.054;3.654;2022-12-29T14:06:03;7.10;;;1.40;;
36659;SDS011;22654;51.054;3.654;2022-12-29T14:08:41;7.47;;;1.63;;
36659;SDS011;22654;51.054;3.654;2022-12-29T14:11:11;4.32;;;1.67;;
36659;SDS011;22654;51.054;3.654;2022-12-29T14:13:43;5.32;;;1.75;;
36659;SDS011;22654;51.054;3.654;2022-12-29T14:16:30;4.55;;;2.15;;
36659;SDS011;22654;51.054;3.654;2022-12-29T14:21:49;4.03;;;1.25;;
36659;SDS011;22654;51.054;3.654;2022-12-29T14:37:27;4.65;;;1.90;;
36659;SDS011;22654;51.054;3.654;2022-12-29T14:42:51;5.90;;;1.45;;
36659;SDS011;22654;51.054;3.654;2022-12-29T14:47:50;7.15;;;1.92;;
36659;SDS011;22654;51.054;3.654;2022-12-29T14:52:53;4.93;;;1.67;;
36659;SDS011;22654;51.054;3.654;2022-12-29T15:00:50;8.85;;;2.25;;
36659;SDS011;22654;51.054;3.654;2022-12-29T15:03:17;10.02;;;2.83;;
36659;SDS011;22654;51.054;3.654;2022-12-29T15:05:46;17.05;;;3.78;;
36659;SDS011;22654;51.054;3.654;2022-12-29T15:08:17;9.80;;;2.47;;
36659;SDS011;22654;51.054;3.654;2022-12-29T15:10:51;11.38;;;4.45;;
36659;SDS011;22654;51.054;3.654;2022-12-29T15:13:24;6.80;;;2.58;;
36659;SDS011;22654;51.054;3.654;2022-12-29T15:15:58;11.57;;;2.85;;
36659;SDS011;22654;51.054;3.654;2022-12-29T15:18:31;7.82;;;2.42;;
36659;SDS011;22654;51.054;3.654;2022-12-29T15:20:59;10.02;;;2.78;;
36659;SDS011;22654;51.054;3.654;2022-12-29T15:25:58;10.82;;;2.55;;
36659;SDS011;22654;51.054;3.654;2022-12-29T15:31:20;7.45;;;2.83;;
36659;SDS011;22654;51.054;3.654;2022-12-29T15:33:49;7.93;;;1.75;;
36659;SDS011;22654;51.054;3.654;2022-12-29T15:36:21;9.90;;;2.40;;
36659;SDS011;22654;51.054;3.654;2022-12-29T15:38:49;7.70;;;2.40;;
36659;SDS011;22654;51.054;3.654;2022-12-29T15:44:26;4.10;;;1.80;;
36659;SDS011;22654;51.054;3.654;2022-12-29T15:47:03;5.93;;;1.98;;
36659;SDS011;22654;51.054;3.654;2022-12-29T15:49:30;11.20;;;2.72;;
36659;SDS011;22654;51.054;3.654;2022-12-29T15:51:58;17.88;;;3.42;;
36659;SDS011;22654;51.054;3.654;2022-12-29T15:54:24;10.73;;;2.70;;
36659;SDS011;22654;51.054;3.654;2022-12-29T15:56:55;12.27;;;2.95;;
36659;SDS011;22654;51.054;3.654;2022-12-29T15:59:33;10.45;;;2.40;;
36659;SDS011;22654;51.054;3.654;2022-12-29T16:02:00;10.40;;;3.72;;
36659;SDS011;22654;51.054;3.654;2022-12-29T16:04:29;13.65;;;3.33;;
36659;SDS011;22654;51.054;3.654;2022-12-29T16:07:01;12.88;;;3.70;;
36659;SDS011;22654;51.054;3.654;2022-12-29T16:09:30;11.75;;;3.85;;
36659;SDS011;22654;51.054;3.654;2022-12-29T16:12:01;14.57;;;4.38;;
36659;SDS011;22654;51.054;3.654;2022-12-29T16:14:34;14.15;;;4.60;;
36659;SDS011;22654;51.054;3.654;2022-12-29T16:17:10;12.52;;;3.30;;
36659;SDS011;22654;51.054;3.654;2022-12-29T16:19:41;20.02;;;6.30;;
36659;SDS011;22654;51.054;3.654;2022-12-29T16:22:12;14.75;;;4.32;;
36659;SDS011;22654;51.054;3.654;2022-12-29T16:24:44;10.98;;;4.28;;
36659;SDS011;22654;51.054;3.654;2022-12-29T16:30:06;10.82;;;3.67;;
36659;SDS011;22654;51.054;3.654;2022-12-29T16:32:48;10.38;;;4.03;;
36659;SDS011;22654;51.054;3.654;2022-12-29T16:35:18;13.32;;;3.30;;
36659;SDS011;22654;51.054;3.654;2022-12-29T16:37:46;13.23;;;2.92;;
36659;SDS011;22654;51.054;3.654;2022-12-29T16:40:28;13.15;;;3.55;;
36659;SDS011;22654;51.054;3.654;2022-12-29T16:42:57;11.50;;;4.07;;
36659;SDS011;22654;51.054;3.654;2022-12-29T16:50:45;10.23;;;3.28;;
36659;SDS011;22654;51.054;3.654;2022-12-29T16:53:19;18.52;;;4.15;;
36659;SDS011;22654;51.054;3.654;2022-12-29T16:55:52;18.13;;;4.28;;
36659;SDS011;22654;51.054;3.654;2022-12-29T16:58:22;20.92;;;3.80;;
36659;SDS011;22654;51.054;3.654;2022-12-29T17:00:53;17.83;;;4.43;;
36659;SDS011;22654;51.054;3.654;2022-12-29T17:03:21;16.95;;;3.33;;
36659;SDS011;22654;51.054;3.654;2022-12-29T17:05:48;14.02;;;3.60;;
36659;SDS011;22654;51.054;3.654;2022-12-29T17:08:18;17.70;;;5.22;;
36659;SDS011;22654;51.054;3.654;2022-12-29T17:10:55;13.27;;;3.47;;
36659;SDS011;22654;51.054;3.654;2022-12-29T17:13:40;14.73;;;3.70;;
36659;SDS011;22654;51.054;3.654;2022-12-29T17:16:06;16.60;;;3.45;;
36659;SDS011;22654;51.054;3.654;2022-12-29T17:18:35;19.45;;;4.20;;
36659;SDS011;22654;51.054;3.654;2022-12-29T17:21:01;9.40;;;3.00;;
36659;SDS011;22654;51.054;3.654;2022-12-29T17:23:28;18.67;;;3.97;;
36659;SDS011;22654;51.054;3.654;2022-12-29T17:25:56;17.17;;;3.53;;
36659;SDS011;22654;51.054;3.654;2022-12-29T17:28:23;11.98;;;3.80;;
36659;SDS011;22654;51.054;3.654;2022-12-29T17:30:56;14.23;;;3.08;;
36659;SDS011;22654;51.054;3.654;2022-12-29T17:33:25;12.60;;;3.65;;
36659;SDS011;22654;51.054;3.654;2022-12-29T17:35:51;16.35;;;3.75;;
36659;SDS011;22654;51.054;3.654;2022-12-29T17:40:45;16.30;;;4.50;;
36659;SDS011;22654;51.054;3.654;2022-12-29T17:43:12;14.73;;;4.15;;
36659;SDS011;22654;51.054;3.654;2022-12-29T17:45:39;13.57;;;4.10;;
36659;SDS011;22654;51.054;3.654;2022-12-29T17:48:11;15.57;;;3.53;;
36659;SDS011;22654;51.054;3.654;2022-12-29T17:50:38;11.87;;;4.10;;